sensor_id;sensor_type;location;lat;lon;timestamp;temperature;humidity
10270;DHT22;70826;50.930;5.334;2023-09-07T00:02:12;27.60;81.50
10270;DHT22;70826;50.930;5.334;2023-09-07T00:04:37;27.60;81.50
10270;DHT22;70826;50.930;5.334;2023-09-07T00:07:06;27.60;81.50
10270;DHT22;70826;50.930;5.334;2023-09-07T00:09:31;27.60;81.50
10270;DHT22;70826;50.930;5.334;2023-09-07T00:12:00;27.60;81.50
10270;DHT22;70826;50.930;5.334;2023-09-07T00:14:30;27.60;81.50
10270;DHT22;70826;50.930;5.334;2023-09-07T00:16:56;27.60;81.50
10270;DHT22;70826;50.930;5.334;2023-09-07T00:19:24;27.60;81.50
10270;DHT22;70826;50.930;5.334;2023-09-07T00:21:52;27.60;81.50
10270;DHT22;70826;50.930;5.334;2023-09-07T00:24:22;27.60;81.50
10270;DHT22;70826;50.930;5.334;2023-09-07T00:26:55;27.60;81.50
10270;DHT22;70826;50.930;5.334;2023-09-07T00:29:25;27.60;81.50
10270;DHT22;70826;50.930;5.334;2023-09-07T00:31:52;27.60;81.50
10270;DHT22;70826;50.930;5.334;2023-09-07T00:34:22;27.60;81.50
10270;DHT22;70826;50.930;5.334;2023-09-07T00:36:48;27.60;81.50
10270;DHT22;70826;50.930;5.334;2023-09-07T00:39:16;27.60;81.50
10270;DHT22;70826;50.930;5.334;2023-09-07T00:41:43;27.60;81.50
10270;DHT22;70826;50.930;5.334;2023-09-07T00:44:09;27.60;82.10
10270;DHT22;70826;50.930;5.334;2023-09-07T00:46:37;27.60;81.50
10270;DHT22;70826;50.930;5.334;2023-09-07T00:49:03;27.60;81.60
10270;DHT22;70826;50.930;5.334;2023-09-07T00:51:32;27.60;81.50
10270;DHT22;70826;50.930;5.334;2023-09-07T00:53:58;27.60;81.50
10270;DHT22;70826;50.930;5.334;2023-09-07T00:56:26;27.60;81.50
10270;DHT22;70826;50.930;5.334;2023-09-07T00:58:54;27.60;81.50
10270;DHT22;70826;50.930;5.334;2023-09-07T01:01:26;27.60;81.50
10270;DHT22;70826;50.930;5.334;2023-09-07T01:03:54;27.60;81.60
10270;DHT22;70826;50.930;5.334;2023-09-07T01:06:47;27.60;82.20
10270;DHT22;70826;50.930;5.334;2023-09-07T01:09:24;27.60;81.60
10270;DHT22;70826;50.930;5.334;2023-09-07T01:11:54;27.60;81.50
10270;DHT22;70826;50.930;5.334;2023-09-07T01:14:20;27.60;81.50
10270;DHT22;70826;50.930;5.334;2023-09-07T01:16:48;27.60;81.50
10270;DHT22;70826;50.930;5.334;2023-09-07T01:19:19;27.60;81.50
10270;DHT22;70826;50.930;5.334;2023-09-07T01:21:50;27.60;81.50
10270;DHT22;70826;50.930;5.334;2023-09-07T01:24:16;27.60;81.50
10270;DHT22;70826;50.930;5.334;2023-09-07T01:26:44;27.60;81.50
10270;DHT22;70826;50.930;5.334;2023-09-07T01:29:16;27.60;81.50
10270;DHT22;70826;50.930;5.334;2023-09-07T01:31:42;27.60;81.50
10270;DHT22;70826;50.930;5.334;2023-09-07T01:34:08;27.60;81.50
10270;DHT22;70826;50.930;5.334;2023-09-07T01:36:37;27.50;81.50
10270;DHT22;70826;50.930;5.334;2023-09-07T01:39:08;27.60;81.60
10270;DHT22;70826;50.930;5.334;2023-09-07T01:41:34;27.60;81.50
10270;DHT22;70826;50.930;5.334;2023-09-07T01:44:02;27.60;81.50
10270;DHT22;70826;50.930;5.334;2023-09-07T01:46:30;27.60;81.50
10270;DHT22;70826;50.930;5.334;2023-09-07T01:48:56;27.60;81.50
10270;DHT22;70826;50.930;5.334;2023-09-07T01:51:24;27.60;81.50
10270;DHT22;70826;50.930;5.334;2023-09-07T01:53:53;27.60;81.50
10270;DHT22;70826;50.930;5.334;2023-09-07T01:56:22;27.60;81.40
10270;DHT22;70826;50.930;5.334;2023-09-07T01:58:50;27.60;81.40
10270;DHT22;70826;50.930;5.334;2023-09-07T02:03:50;27.60;81.50
10270;DHT22;70826;50.930;5.334;2023-09-07T02:06:19;27.60;81.50
10270;DHT22;70826;50.930;5.334;2023-09-07T02:08:44;27.60;81.50
10270;DHT22;70826;50.930;5.334;2023-09-07T02:11:13;27.50;81.40
10270;DHT22;70826;50.930;5.334;2023-09-07T02:13:44;27.50;81.40
10270;DHT22;70826;50.930;5.334;2023-09-07T02:16:12;27.60;81.50
10270;DHT22;70826;50.930;5.334;2023-09-07T02:18:44;27.60;81.40
10270;DHT22;70826;50.930;5.334;2023-09-07T02:21:11;27.60;81.40
10270;DHT22;70826;50.930;5.334;2023-09-07T02:23:39;27.60;81.40
10270;DHT22;70826;50.930;5.334;2023-09-07T02:26:08;27.60;81.40
10270;DHT22;70826;50.930;5.334;2023-09-07T02:28:33;27.50;81.40
10270;DHT22;70826;50.930;5.334;2023-09-07T02:31:05;27.60;81.50
10270;DHT22;70826;50.930;5.334;2023-09-07T02:33:34;27.60;81.50
10270;DHT22;70826;50.930;5.334;2023-09-07T02:36:03;27.60;81.40
10270;DHT22;70826;50.930;5.334;2023-09-07T02:38:33;27.60;81.40
10270;DHT22;70826;50.930;5.334;2023-09-07T02:41:01;27.60;81.40
10270;DHT22;70826;50.930;5.334;2023-09-07T02:43:30;27.60;81.40
10270;DHT22;70826;50.930;5.334;2023-09-07T02:45:58;27.60;81.50
10270;DHT22;70826;50.930;5.334;2023-09-07T02:48:26;27.60;81.50
10270;DHT22;70826;50.930;5.334;2023-09-07T02:50:54;27.60;81.50
10270;DHT22;70826;50.930;5.334;2023-09-07T02:53:23;27.60;81.50
10270;DHT22;70826;50.930;5.334;2023-09-07T02:55:49;27.60;81.50
10270;DHT22;70826;50.930;5.334;2023-09-07T02:58:14;27.50;81.40
10270;DHT22;70826;50.930;5.334;2023-09-07T03:00:46;27.60;81.40
10270;DHT22;70826;50.930;5.334;2023-09-07T03:03:14;27.60;81.40
10270;DHT22;70826;50.930;5.334;2023-09-07T03:05:43;27.60;81.40
10270;DHT22;70826;50.930;5.334;2023-09-07T03:08:11;27.60;81.50
10270;DHT22;70826;50.930;5.334;2023-09-07T03:10:38;27.60;81.40
10270;DHT22;70826;50.930;5.334;2023-09-07T03:13:05;27.50;81.40
10270;DHT22;70826;50.930;5.334;2023-09-07T03:15:35;27.60;81.40
10270;DHT22;70826;50.930;5.334;2023-09-07T03:18:03;27.60;81.40
10270;DHT22;70826;50.930;5.334;2023-09-07T03:20:32;27.60;81.40
10270;DHT22;70826;50.930;5.334;2023-09-07T03:23:02;27.60;81.40
10270;DHT22;70826;50.930;5.334;2023-09-07T03:25:35;27.60;81.40
10270;DHT22;70826;50.930;5.334;2023-09-07T03:28:01;27.60;81.40
10270;DHT22;70826;50.930;5.334;2023-09-07T03:30:29;27.60;81.40
10270;DHT22;70826;50.930;5.334;2023-09-07T03:32:55;27.50;81.40
10270;DHT22;70826;50.930;5.334;2023-09-07T03:35:26;27.60;81.40
10270;DHT22;70826;50.930;5.334;2023-09-07T03:37:55;27.60;81.30
10270;DHT22;70826;50.930;5.334;2023-09-07T03:40:20;27.60;81.30
10270;DHT22;70826;50.930;5.334;2023-09-07T03:42:48;27.60;81.30
10270;DHT22;70826;50.930;5.334;2023-09-07T03:45:17;27.60;81.30
10270;DHT22;70826;50.930;5.334;2023-09-07T03:47:42;27.60;81.30
10270;DHT22;70826;50.930;5.334;2023-09-07T03:50:10;27.60;81.30
10270;DHT22;70826;50.930;5.334;2023-09-07T03:52:37;27.50;81.30
10270;DHT22;70826;50.930;5.334;2023-09-07T03:55:03;27.60;81.30
10270;DHT22;70826;50.930;5.334;2023-09-07T03:57:31;27.60;81.30
10270;DHT22;70826;50.930;5.334;2023-09-07T04:00:00;27.60;81.30
10270;DHT22;70826;50.930;5.334;2023-09-07T04:02:25;27.60;81.30
10270;DHT22;70826;50.930;5.334;2023-09-07T04:04:56;27.60;81.20
10270;DHT22;70826;50.930;5.334;2023-09-07T04:07:24;27.60;81.20
10270;DHT22;70826;50.930;5.334;2023-09-07T04:09:50;27.60;81.20
10270;DHT22;70826;50.930;5.334;2023-09-07T04:12:21;27.60;81.20
10270;DHT22;70826;50.930;5.334;2023-09-07T04:14:46;27.60;81.20
10270;DHT22;70826;50.930;5.334;2023-09-07T04:17:12;27.50;81.70
10270;DHT22;70826;50.930;5.334;2023-09-07T04:19:40;27.50;81.10
10270;DHT22;70826;50.930;5.334;2023-09-07T04:22:07;27.60;81.20
10270;DHT22;70826;50.930;5.334;2023-09-07T04:24:35;27.60;81.20
10270;DHT22;70826;50.930;5.334;2023-09-07T04:27:09;27.50;81.10
10270;DHT22;70826;50.930;5.334;2023-09-07T04:29:36;27.50;81.10
10270;DHT22;70826;50.930;5.334;2023-09-07T04:32:04;27.50;81.10
10270;DHT22;70826;50.930;5.334;2023-09-07T04:34:30;27.50;81.10
10270;DHT22;70826;50.930;5.334;2023-09-07T04:36:58;27.50;81.10
10270;DHT22;70826;50.930;5.334;2023-09-07T04:39:28;27.50;81.10
10270;DHT22;70826;50.930;5.334;2023-09-07T04:41:54;27.50;81.10
10270;DHT22;70826;50.930;5.334;2023-09-07T04:44:20;27.50;81.10
10270;DHT22;70826;50.930;5.334;2023-09-07T04:46:45;27.50;81.10
10270;DHT22;70826;50.930;5.334;2023-09-07T04:49:13;27.50;81.10
10270;DHT22;70826;50.930;5.334;2023-09-07T04:51:41;27.50;81.10
10270;DHT22;70826;50.930;5.334;2023-09-07T04:54:11;27.50;81.10
10270;DHT22;70826;50.930;5.334;2023-09-07T04:56:37;27.50;81.00
10270;DHT22;70826;50.930;5.334;2023-09-07T04:59:08;27.50;81.00
10270;DHT22;70826;50.930;5.334;2023-09-07T05:01:36;27.50;81.00
10270;DHT22;70826;50.930;5.334;2023-09-07T05:04:09;27.50;80.90
10270;DHT22;70826;50.930;5.334;2023-09-07T05:06:34;27.50;80.90
10270;DHT22;70826;50.930;5.334;2023-09-07T05:09:05;27.50;80.90
10270;DHT22;70826;50.930;5.334;2023-09-07T05:11:33;27.50;80.90
10270;DHT22;70826;50.930;5.334;2023-09-07T05:14:02;27.50;80.90
10270;DHT22;70826;50.930;5.334;2023-09-07T05:16:30;27.50;80.90
10270;DHT22;70826;50.930;5.334;2023-09-07T05:18:58;27.50;80.90
10270;DHT22;70826;50.930;5.334;2023-09-07T05:21:30;27.50;80.90
10270;DHT22;70826;50.930;5.334;2023-09-07T05:23:55;27.50;80.80
10270;DHT22;70826;50.930;5.334;2023-09-07T05:26:26;27.50;80.80
10270;DHT22;70826;50.930;5.334;2023-09-07T05:28:54;27.50;80.90
10270;DHT22;70826;50.930;5.334;2023-09-07T05:31:22;27.50;80.90
10270;DHT22;70826;50.930;5.334;2023-09-07T05:33:50;27.50;80.80
10270;DHT22;70826;50.930;5.334;2023-09-07T05:36:19;27.50;80.80
10270;DHT22;70826;50.930;5.334;2023-09-07T05:38:49;27.50;80.80
10270;DHT22;70826;50.930;5.334;2023-09-07T05:41:17;27.50;80.80
10270;DHT22;70826;50.930;5.334;2023-09-07T05:43:47;27.50;80.80
10270;DHT22;70826;50.930;5.334;2023-09-07T05:46:19;27.50;80.80
10270;DHT22;70826;50.930;5.334;2023-09-07T05:48:47;27.50;80.80
10270;DHT22;70826;50.930;5.334;2023-09-07T05:51:14;27.50;80.80
10270;DHT22;70826;50.930;5.334;2023-09-07T05:53:45;27.50;80.70
10270;DHT22;70826;50.930;5.334;2023-09-07T05:56:15;27.50;80.80
10270;DHT22;70826;50.930;5.334;2023-09-07T05:58:41;27.50;80.80
10270;DHT22;70826;50.930;5.334;2023-09-07T06:01:06;27.50;80.80
10270;DHT22;70826;50.930;5.334;2023-09-07T06:03:36;27.50;80.80
10270;DHT22;70826;50.930;5.334;2023-09-07T06:06:04;27.50;80.80
10270;DHT22;70826;50.930;5.334;2023-09-07T06:08:32;27.50;80.80
10270;DHT22;70826;50.930;5.334;2023-09-07T06:10:58;27.50;81.40
10270;DHT22;70826;50.930;5.334;2023-09-07T06:13:26;27.50;80.70
10270;DHT22;70826;50.930;5.334;2023-09-07T06:15:51;27.50;80.70
10270;DHT22;70826;50.930;5.334;2023-09-07T06:18:19;27.60;80.80
10270;DHT22;70826;50.930;5.334;2023-09-07T06:20:44;27.50;80.70
10270;DHT22;70826;50.930;5.334;2023-09-07T06:23:17;27.50;80.70
10270;DHT22;70826;50.930;5.334;2023-09-07T06:25:42;27.50;80.70
10270;DHT22;70826;50.930;5.334;2023-09-07T06:28:08;27.50;80.70
10270;DHT22;70826;50.930;5.334;2023-09-07T06:30:38;27.50;80.70
10270;DHT22;70826;50.930;5.334;2023-09-07T06:33:11;27.50;80.80
10270;DHT22;70826;50.930;5.334;2023-09-07T06:35:37;27.50;80.80
10270;DHT22;70826;50.930;5.334;2023-09-07T06:38:08;27.50;80.70
10270;DHT22;70826;50.930;5.334;2023-09-07T06:40:36;27.50;80.70
10270;DHT22;70826;50.930;5.334;2023-09-07T06:43:04;27.50;80.70
10270;DHT22;70826;50.930;5.334;2023-09-07T06:45:36;27.60;80.80
10270;DHT22;70826;50.930;5.334;2023-09-07T06:48:03;27.50;80.80
10270;DHT22;70826;50.930;5.334;2023-09-07T06:50:31;27.50;80.70
10270;DHT22;70826;50.930;5.334;2023-09-07T06:52:57;27.60;80.90
10270;DHT22;70826;50.930;5.334;2023-09-07T06:55:25;27.50;80.80
10270;DHT22;70826;50.930;5.334;2023-09-07T06:57:54;27.50;80.80
10270;DHT22;70826;50.930;5.334;2023-09-07T07:00:23;27.60;80.80
10270;DHT22;70826;50.930;5.334;2023-09-07T07:02:51;27.60;80.80
10270;DHT22;70826;50.930;5.334;2023-09-07T07:05:16;27.60;80.80
10270;DHT22;70826;50.930;5.334;2023-09-07T07:07:45;27.60;80.80
10270;DHT22;70826;50.930;5.334;2023-09-07T07:10:15;27.60;80.80
10270;DHT22;70826;50.930;5.334;2023-09-07T07:12:41;27.60;80.80
10270;DHT22;70826;50.930;5.334;2023-09-07T07:15:09;27.60;80.80
10270;DHT22;70826;50.930;5.334;2023-09-07T07:17:39;27.60;80.80
10270;DHT22;70826;50.930;5.334;2023-09-07T07:20:07;27.60;80.80
10270;DHT22;70826;50.930;5.334;2023-09-07T07:22:33;27.50;80.80
10270;DHT22;70826;50.930;5.334;2023-09-07T07:25:03;27.50;80.80
10270;DHT22;70826;50.930;5.334;2023-09-07T07:27:34;27.50;80.80
10270;DHT22;70826;50.930;5.334;2023-09-07T07:30:07;27.60;80.90
10270;DHT22;70826;50.930;5.334;2023-09-07T07:32:35;27.60;80.80
10270;DHT22;70826;50.930;5.334;2023-09-07T07:35:01;27.60;80.80
10270;DHT22;70826;50.930;5.334;2023-09-07T07:37:27;27.60;80.80
10270;DHT22;70826;50.930;5.334;2023-09-07T07:39:57;27.60;80.80
10270;DHT22;70826;50.930;5.334;2023-09-07T07:42:25;27.50;80.80
10270;DHT22;70826;50.930;5.334;2023-09-07T07:44:53;27.60;80.80
10270;DHT22;70826;50.930;5.334;2023-09-07T07:47:24;27.60;80.90
10270;DHT22;70826;50.930;5.334;2023-09-07T07:49:56;27.60;80.90
10270;DHT22;70826;50.930;5.334;2023-09-07T07:52:22;27.50;80.80
10270;DHT22;70826;50.930;5.334;2023-09-07T07:54:50;27.50;80.80
10270;DHT22;70826;50.930;5.334;2023-09-07T07:57:15;27.60;80.90
10270;DHT22;70826;50.930;5.334;2023-09-07T07:59:43;27.60;80.90
10270;DHT22;70826;50.930;5.334;2023-09-07T08:02:09;27.60;80.90
10270;DHT22;70826;50.930;5.334;2023-09-07T08:04:34;27.50;80.80
10270;DHT22;70826;50.930;5.334;2023-09-07T08:07:01;27.50;80.90
10270;DHT22;70826;50.930;5.334;2023-09-07T08:09:33;27.60;80.90
10270;DHT22;70826;50.930;5.334;2023-09-07T08:12:02;27.60;80.90
10270;DHT22;70826;50.930;5.334;2023-09-07T08:14:31;27.60;81.00
10270;DHT22;70826;50.930;5.334;2023-09-07T08:16:59;27.60;81.00
10270;DHT22;70826;50.930;5.334;2023-09-07T08:19:27;27.60;80.90
10270;DHT22;70826;50.930;5.334;2023-09-07T08:21:58;27.60;81.00
10270;DHT22;70826;50.930;5.334;2023-09-07T08:24:24;27.60;81.00
10270;DHT22;70826;50.930;5.334;2023-09-07T08:26:50;27.60;80.90
10270;DHT22;70826;50.930;5.334;2023-09-07T08:29:20;27.60;81.00
10270;DHT22;70826;50.930;5.334;2023-09-07T08:31:54;27.60;81.60
10270;DHT22;70826;50.930;5.334;2023-09-07T08:34:20;27.60;81.00
10270;DHT22;70826;50.930;5.334;2023-09-07T08:36:47;27.60;81.00
10270;DHT22;70826;50.930;5.334;2023-09-07T08:39:17;27.60;81.00
10270;DHT22;70826;50.930;5.334;2023-09-07T08:41:47;27.60;81.00
10270;DHT22;70826;50.930;5.334;2023-09-07T08:44:19;27.60;81.00
10270;DHT22;70826;50.930;5.334;2023-09-07T08:46:52;27.60;81.00
10270;DHT22;70826;50.930;5.334;2023-09-07T08:49:20;27.60;81.00
10270;DHT22;70826;50.930;5.334;2023-09-07T08:51:46;27.60;81.00
10270;DHT22;70826;50.930;5.334;2023-09-07T08:54:18;27.60;81.00
10270;DHT22;70826;50.930;5.334;2023-09-07T08:56:47;27.60;81.00
10270;DHT22;70826;50.930;5.334;2023-09-07T08:59:15;27.60;81.00
10270;DHT22;70826;50.930;5.334;2023-09-07T09:01:42;27.60;81.00
10270;DHT22;70826;50.930;5.334;2023-09-07T09:04:10;27.60;81.10
10270;DHT22;70826;50.930;5.334;2023-09-07T09:06:38;27.60;81.00
10270;DHT22;70826;50.930;5.334;2023-09-07T09:09:04;27.60;81.10
10270;DHT22;70826;50.930;5.334;2023-09-07T09:11:31;27.60;81.10
10270;DHT22;70826;50.930;5.334;2023-09-07T09:13:59;27.60;81.10
10270;DHT22;70826;50.930;5.334;2023-09-07T09:16:25;27.60;81.10
10270;DHT22;70826;50.930;5.334;2023-09-07T09:18:57;27.60;81.10
10270;DHT22;70826;50.930;5.334;2023-09-07T09:21:24;27.60;81.20
10270;DHT22;70826;50.930;5.334;2023-09-07T09:23:54;27.60;81.20
10270;DHT22;70826;50.930;5.334;2023-09-07T09:26:23;27.60;81.20
10270;DHT22;70826;50.930;5.334;2023-09-07T09:28:55;27.60;81.20
10270;DHT22;70826;50.930;5.334;2023-09-07T09:31:23;27.60;81.20
10270;DHT22;70826;50.930;5.334;2023-09-07T09:33:52;27.60;81.20
10270;DHT22;70826;50.930;5.334;2023-09-07T09:36:18;27.60;81.20
10270;DHT22;70826;50.930;5.334;2023-09-07T09:38:52;27.60;81.20
10270;DHT22;70826;50.930;5.334;2023-09-07T09:41:23;27.60;81.30
10270;DHT22;70826;50.930;5.334;2023-09-07T09:43:55;27.60;81.30
10270;DHT22;70826;50.930;5.334;2023-09-07T09:46:22;27.60;81.30
10270;DHT22;70826;50.930;5.334;2023-09-07T09:48:54;27.60;81.30
10270;DHT22;70826;50.930;5.334;2023-09-07T09:51:21;27.60;81.30
10270;DHT22;70826;50.930;5.334;2023-09-07T09:53:51;27.60;81.40
10270;DHT22;70826;50.930;5.334;2023-09-07T09:56:17;27.60;81.40
10270;DHT22;70826;50.930;5.334;2023-09-07T09:58:46;27.60;81.40
10270;DHT22;70826;50.930;5.334;2023-09-07T10:01:12;27.60;81.40
10270;DHT22;70826;50.930;5.334;2023-09-07T10:03:51;27.60;81.40
10270;DHT22;70826;50.930;5.334;2023-09-07T10:09:04;27.60;81.40
10270;DHT22;70826;50.930;5.334;2023-09-07T10:11:35;27.60;81.50
10270;DHT22;70826;50.930;5.334;2023-09-07T10:14:06;27.60;81.40
10270;DHT22;70826;50.930;5.334;2023-09-07T10:16:52;27.60;81.40
10270;DHT22;70826;50.930;5.334;2023-09-07T10:19:27;27.60;81.50
10270;DHT22;70826;50.930;5.334;2023-09-07T10:21:54;27.60;81.40
10270;DHT22;70826;50.930;5.334;2023-09-07T10:27:03;27.60;81.20
10270;DHT22;70826;50.930;5.334;2023-09-07T10:29:43;27.60;81.30
10270;DHT22;70826;50.930;5.334;2023-09-07T10:32:12;27.60;81.30
10270;DHT22;70826;50.930;5.334;2023-09-07T10:34:42;27.60;81.30
10270;DHT22;70826;50.930;5.334;2023-09-07T10:37:14;27.60;81.30
10270;DHT22;70826;50.930;5.334;2023-09-07T10:39:42;27.60;81.40
10270;DHT22;70826;50.930;5.334;2023-09-07T10:42:23;27.60;81.40
10270;DHT22;70826;50.930;5.334;2023-09-07T10:44:51;27.60;81.40
10270;DHT22;70826;50.930;5.334;2023-09-07T10:47:22;27.60;81.40
10270;DHT22;70826;50.930;5.334;2023-09-07T10:49:50;27.60;81.40
10270;DHT22;70826;50.930;5.334;2023-09-07T10:52:16;27.60;81.40
10270;DHT22;70826;50.930;5.334;2023-09-07T10:54:43;27.60;81.40
10270;DHT22;70826;50.930;5.334;2023-09-07T10:57:12;27.60;81.40
10270;DHT22;70826;50.930;5.334;2023-09-07T10:59:48;27.60;81.40
10270;DHT22;70826;50.930;5.334;2023-09-07T11:02:14;27.60;81.40
10270;DHT22;70826;50.930;5.334;2023-09-07T11:04:43;27.60;81.40
10270;DHT22;70826;50.930;5.334;2023-09-07T11:07:11;27.60;81.40
10270;DHT22;70826;50.930;5.334;2023-09-07T11:09:45;27.60;81.30
10270;DHT22;70826;50.930;5.334;2023-09-07T11:12:14;27.60;81.30
10270;DHT22;70826;50.930;5.334;2023-09-07T11:14:41;27.60;81.40
10270;DHT22;70826;50.930;5.334;2023-09-07T11:17:06;27.60;81.30
10270;DHT22;70826;50.930;5.334;2023-09-07T11:19:33;27.60;81.30
10270;DHT22;70826;50.930;5.334;2023-09-07T11:22:01;27.60;81.30
10270;DHT22;70826;50.930;5.334;2023-09-07T11:24:31;27.60;81.30
10270;DHT22;70826;50.930;5.334;2023-09-07T11:26:57;27.60;81.30
10270;DHT22;70826;50.930;5.334;2023-09-07T11:29:26;27.60;81.30
10270;DHT22;70826;50.930;5.334;2023-09-07T11:31:51;27.60;81.30
10270;DHT22;70826;50.930;5.334;2023-09-07T11:34:17;27.70;81.30
10270;DHT22;70826;50.930;5.334;2023-09-07T11:36:43;27.70;81.10
10270;DHT22;70826;50.930;5.334;2023-09-07T11:39:11;27.70;81.00
10270;DHT22;70826;50.930;5.334;2023-09-07T11:41:43;27.70;81.00
10270;DHT22;70826;50.930;5.334;2023-09-07T11:44:10;27.60;80.90
10270;DHT22;70826;50.930;5.334;2023-09-07T11:46:39;27.60;80.90
10270;DHT22;70826;50.930;5.334;2023-09-07T11:49:07;27.60;80.90
10270;DHT22;70826;50.930;5.334;2023-09-07T11:51:38;27.60;80.90
10270;DHT22;70826;50.930;5.334;2023-09-07T11:54:03;27.60;80.90
10270;DHT22;70826;50.930;5.334;2023-09-07T11:56:31;27.60;80.80
10270;DHT22;70826;50.930;5.334;2023-09-07T11:58:57;27.60;81.10
10270;DHT22;70826;50.930;5.334;2023-09-07T12:01:25;27.70;81.70
10270;DHT22;70826;50.930;5.334;2023-09-07T12:03:52;27.60;82.20
10270;DHT22;70826;50.930;5.334;2023-09-07T12:06:18;27.60;82.50
10270;DHT22;70826;50.930;5.334;2023-09-07T12:09:01;27.60;82.60
10270;DHT22;70826;50.930;5.334;2023-09-07T12:11:28;27.50;82.70
10270;DHT22;70826;50.930;5.334;2023-09-07T12:13:56;27.60;82.70
10270;DHT22;70826;50.930;5.334;2023-09-07T12:16:22;27.70;82.80
10270;DHT22;70826;50.930;5.334;2023-09-07T12:18:50;27.70;82.80
10270;DHT22;70826;50.930;5.334;2023-09-07T12:21:15;27.80;82.90
10270;DHT22;70826;50.930;5.334;2023-09-07T12:23:41;27.80;82.80
10270;DHT22;70826;50.930;5.334;2023-09-07T12:26:07;27.90;82.90
10270;DHT22;70826;50.930;5.334;2023-09-07T12:28:34;27.90;82.90
10270;DHT22;70826;50.930;5.334;2023-09-07T12:31:02;27.90;82.90
10270;DHT22;70826;50.930;5.334;2023-09-07T12:33:28;28.00;83.00
10270;DHT22;70826;50.930;5.334;2023-09-07T12:35:57;28.00;83.00
10270;DHT22;70826;50.930;5.334;2023-09-07T12:38:28;28.00;83.00
10270;DHT22;70826;50.930;5.334;2023-09-07T12:40:59;28.10;83.00
10270;DHT22;70826;50.930;5.334;2023-09-07T12:43:24;28.10;83.00
10270;DHT22;70826;50.930;5.334;2023-09-07T12:45:53;28.20;83.00
10270;DHT22;70826;50.930;5.334;2023-09-07T12:48:19;28.20;83.00
10270;DHT22;70826;50.930;5.334;2023-09-07T12:50:45;28.30;83.00
10270;DHT22;70826;50.930;5.334;2023-09-07T12:53:11;28.30;83.00
10270;DHT22;70826;50.930;5.334;2023-09-07T12:55:37;28.40;83.00
10270;DHT22;70826;50.930;5.334;2023-09-07T12:58:02;28.40;82.80
10270;DHT22;70826;50.930;5.334;2023-09-07T13:00:28;28.40;82.80
10270;DHT22;70826;50.930;5.334;2023-09-07T13:02:54;28.50;82.70
10270;DHT22;70826;50.930;5.334;2023-09-07T13:05:21;28.40;82.60
10270;DHT22;70826;50.930;5.334;2023-09-07T13:07:47;28.50;82.70
10270;DHT22;70826;50.930;5.334;2023-09-07T13:10:13;28.50;82.70
10270;DHT22;70826;50.930;5.334;2023-09-07T13:12:43;28.50;82.70
10270;DHT22;70826;50.930;5.334;2023-09-07T13:15:11;28.60;82.70
10270;DHT22;70826;50.930;5.334;2023-09-07T13:17:39;28.60;82.60
10270;DHT22;70826;50.930;5.334;2023-09-07T13:20:08;28.60;82.60
10270;DHT22;70826;50.930;5.334;2023-09-07T13:22:33;28.60;82.60
10270;DHT22;70826;50.930;5.334;2023-09-07T13:25:01;28.70;82.60
10270;DHT22;70826;50.930;5.334;2023-09-07T13:27:27;28.60;82.40
10270;DHT22;70826;50.930;5.334;2023-09-07T13:29:53;28.70;82.50
10270;DHT22;70826;50.930;5.334;2023-09-07T13:32:21;28.70;82.50
10270;DHT22;70826;50.930;5.334;2023-09-07T13:34:46;28.80;82.50
10270;DHT22;70826;50.930;5.334;2023-09-07T13:37:12;28.70;82.40
10270;DHT22;70826;50.930;5.334;2023-09-07T13:39:38;28.70;82.40
10270;DHT22;70826;50.930;5.334;2023-09-07T13:42:08;28.80;82.50
10270;DHT22;70826;50.930;5.334;2023-09-07T13:44:34;28.80;82.40
10270;DHT22;70826;50.930;5.334;2023-09-07T13:46:59;28.80;82.30
10270;DHT22;70826;50.930;5.334;2023-09-07T13:49:27;28.80;82.20
10270;DHT22;70826;50.930;5.334;2023-09-07T13:51:55;28.90;82.20
10270;DHT22;70826;50.930;5.334;2023-09-07T13:54:21;28.90;82.10
10270;DHT22;70826;50.930;5.334;2023-09-07T13:56:46;28.90;81.90
10270;DHT22;70826;50.930;5.334;2023-09-07T13:59:15;29.00;82.00
10270;DHT22;70826;50.930;5.334;2023-09-07T14:01:43;29.00;81.90
10270;DHT22;70826;50.930;5.334;2023-09-07T14:04:08;28.90;81.70
10270;DHT22;70826;50.930;5.334;2023-09-07T14:06:36;28.90;81.70
10270;DHT22;70826;50.930;5.334;2023-09-07T14:09:02;28.90;81.60
10270;DHT22;70826;50.930;5.334;2023-09-07T14:11:27;28.90;81.60
10270;DHT22;70826;50.930;5.334;2023-09-07T14:13:53;28.90;81.60
10270;DHT22;70826;50.930;5.334;2023-09-07T14:16:20;28.80;81.60
10270;DHT22;70826;50.930;5.334;2023-09-07T14:18:46;28.80;81.60
10270;DHT22;70826;50.930;5.334;2023-09-07T14:21:15;28.80;81.60
10270;DHT22;70826;50.930;5.334;2023-09-07T14:23:41;28.70;81.50
10270;DHT22;70826;50.930;5.334;2023-09-07T14:26:09;28.80;81.60
10270;DHT22;70826;50.930;5.334;2023-09-07T14:28:35;28.70;81.50
10270;DHT22;70826;50.930;5.334;2023-09-07T14:31:03;28.70;81.50
10270;DHT22;70826;50.930;5.334;2023-09-07T14:33:32;28.70;81.50
10270;DHT22;70826;50.930;5.334;2023-09-07T14:35:58;28.70;81.50
10270;DHT22;70826;50.930;5.334;2023-09-07T14:38:24;28.70;81.60
10270;DHT22;70826;50.930;5.334;2023-09-07T14:40:54;28.60;81.50
10270;DHT22;70826;50.930;5.334;2023-09-07T14:43:24;28.60;81.60
10270;DHT22;70826;50.930;5.334;2023-09-07T14:45:54;28.60;81.60
10270;DHT22;70826;50.930;5.334;2023-09-07T14:48:23;28.50;81.60
10270;DHT22;70826;50.930;5.334;2023-09-07T14:50:49;28.50;81.60
10270;DHT22;70826;50.930;5.334;2023-09-07T14:53:14;28.50;81.60
10270;DHT22;70826;50.930;5.334;2023-09-07T14:55:42;28.50;81.60
10270;DHT22;70826;50.930;5.334;2023-09-07T14:58:10;28.50;81.70
10270;DHT22;70826;50.930;5.334;2023-09-07T15:00:38;28.40;81.70
10270;DHT22;70826;50.930;5.334;2023-09-07T15:03:04;28.40;81.70
10270;DHT22;70826;50.930;5.334;2023-09-07T15:05:30;28.40;81.80
10270;DHT22;70826;50.930;5.334;2023-09-07T15:07:59;28.40;81.80
10270;DHT22;70826;50.930;5.334;2023-09-07T15:10:30;28.40;81.90
10270;DHT22;70826;50.930;5.334;2023-09-07T15:12:57;28.30;81.80
10270;DHT22;70826;50.930;5.334;2023-09-07T15:15:25;28.30;81.90
10270;DHT22;70826;50.930;5.334;2023-09-07T15:17:53;28.30;81.80
10270;DHT22;70826;50.930;5.334;2023-09-07T15:20:18;28.30;81.90
10270;DHT22;70826;50.930;5.334;2023-09-07T15:22:44;28.30;81.80
10270;DHT22;70826;50.930;5.334;2023-09-07T15:25:12;28.30;81.90
10270;DHT22;70826;50.930;5.334;2023-09-07T15:27:43;28.30;81.90
10270;DHT22;70826;50.930;5.334;2023-09-07T15:30:13;28.30;81.90
10270;DHT22;70826;50.930;5.334;2023-09-07T15:32:41;28.30;81.90
10270;DHT22;70826;50.930;5.334;2023-09-07T15:35:07;28.30;82.50
10270;DHT22;70826;50.930;5.334;2023-09-07T15:37:36;28.20;81.90
10270;DHT22;70826;50.930;5.334;2023-09-07T15:40:01;28.20;82.00
10270;DHT22;70826;50.930;5.334;2023-09-07T15:42:29;28.20;82.00
10270;DHT22;70826;50.930;5.334;2023-09-07T15:44:55;28.20;82.00